Time;durP1;ratioP1;P1;durP2;ratioP2;P2;SDS_P1;SDS_P2;PMS_P1;PMS_P2;Temp;Humidity;BMP_temperature;BMP_pressure;BME280_temperature;BME280_humidity;BME280_pressure;Samples;Min_cycle;Max_cycle;Signal;HPM_P1;HPM_P2
2022/09/02 00:01:36;;;;;;;7.97;5.67;;;17.00;99.90;;;;;;5041268;28;20445;-87
2022/09/02 00:04:07;;;;;;;6.30;5.70;;;17.00;99.90;;;;;;5041164;28;20453;-86
2022/09/02 00:06:35;;;;;;;6.07;5.67;;;17.00;99.90;;;;;;5040479;28;20474;-85
2022/09/02 00:09:04;;;;;;;6.63;6.00;;;17.00;99.90;;;;;;5041467;28;20492;-84
2022/09/02 00:11:32;;;;;;;6.43;5.87;;;17.00;99.90;;;;;;5041260;28;20445;-85
2022/09/02 00:14:02;;;;;;;5.60;5.10;;;17.00;99.90;;;;;;5040030;28;20472;-85
2022/09/02 00:16:31;;;;;;;5.23;4.83;;;16.90;99.90;;;;;;5039595;28;20446;-85
2022/09/02 00:18:59;;;;;;;5.50;5.00;;;16.90;99.90;;;;;;5039709;28;20521;-86
2022/09/02 00:21:27;;;;;;;6.17;4.87;;;16.90;99.90;;;;;;5040086;28;20446;-87
2022/09/02 00:23:54;;;;;;;7.23;5.20;;;17.00;99.90;;;;;;5091239;23;20487;-87
2022/09/02 00:26:21;;;;;;;5.90;4.60;;;16.90;99.90;;;;;;5098558;28;20431;-87
2022/09/02 00:28:48;;;;;;;5.57;5.07;;;16.90;99.90;;;;;;5098519;28;20442;-87
2022/09/02 00:31:15;;;;;;;5.70;5.30;;;16.90;99.90;;;;;;5097367;28;21136;-87
2022/09/02 00:33:42;;;;;;;5.60;5.10;;;16.80;99.90;;;;;;5082999;28;20494;-87
2022/09/02 00:36:09;;;;;;;6.00;5.40;;;16.70;99.90;;;;;;5077192;28;20459;-86
2022/09/02 00:38:38;;;;;;;5.43;5.00;;;16.70;99.90;;;;;;5091654;28;20554;-88
2022/09/02 00:41:08;;;;;;;6.30;5.80;;;16.50;99.90;;;;;;5093418;28;20440;-87
2022/09/02 00:43:44;;;;;;;6.07;5.57;;;16.50;99.90;;;;;;5076632;28;20463;-88
2022/09/02 00:46:13;;;;;;;6.13;5.63;;;16.40;99.90;;;;;;5077408;28;20520;-87
2022/09/02 00:48:44;;;;;;;4.63;4.23;;;16.50;99.90;;;;;;5076564;28;20447;-86
2022/09/02 00:51:12;;;;;;;6.30;5.77;;;16.40;99.90;;;;;;5089928;28;20416;-87
2022/09/02 00:53:44;;;;;;;7.00;6.27;;;16.40;99.90;;;;;;5100002;28;20459;-87
2022/09/02 00:56:15;;;;;;;5.70;5.20;;;16.30;99.90;;;;;;5097702;28;20455;-87
2022/09/02 00:58:43;;;;;;;5.83;5.23;;;16.20;99.90;;;;;;5087854;28;20557;-87
2022/09/02 01:01:11;;;;;;;5.00;4.60;;;16.30;99.90;;;;;;5089156;28;20542;-87
2022/09/02 01:03:39;;;;;;;6.00;5.40;;;16.20;99.90;;;;;;5091421;28;20503;-88
2022/09/02 01:06:07;;;;;;;5.80;5.30;;;16.10;99.90;;;;;;5090235;28;20451;-86
2022/09/02 01:08:37;;;;;;;6.50;5.90;;;16.10;99.90;;;;;;5084150;28;20564;-86
2022/09/02 01:11:05;;;;;;;6.13;5.00;;;16.10;99.90;;;;;;5078700;28;20450;-86
2022/09/02 01:13:36;;;;;;;5.77;5.37;;;16.00;99.90;;;;;;5078061;28;20475;-87
2022/09/02 01:16:10;;;;;;;6.07;5.57;;;16.00;99.90;;;;;;5076703;28;20444;-87
2022/09/02 01:18:38;;;;;;;6.27;5.57;;;16.00;99.90;;;;;;5075749;28;20476;-87
2022/09/02 01:21:05;;;;;;;5.83;5.33;;;16.00;99.90;;;;;;5077004;28;20440;-88
2022/09/02 01:23:35;;;;;;;6.47;5.77;;;16.00;99.90;;;;;;5083173;28;20471;-87
2022/09/02 01:26:03;;;;;;;5.77;5.17;;;15.90;99.90;;;;;;5077032;28;20471;-87
2022/09/02 01:28:32;;;;;;;5.70;5.20;;;15.90;99.90;;;;;;5076729;28;20451;-87
2022/09/02 01:30:58;;;;;;;7.50;5.00;;;15.90;99.90;;;;;;5075204;28;20452;-86
2022/09/02 01:33:25;;;;;;;5.40;4.93;;;15.90;99.90;;;;;;5076016;28;20838;-86
2022/09/02 01:35:52;;;;;;;5.20;4.70;;;15.90;99.90;;;;;;5077104;28;20436;-86
2022/09/02 01:38:20;;;;;;;4.90;4.53;;;15.90;99.90;;;;;;5077096;28;20472;-86
2022/09/02 01:40:48;;;;;;;5.43;4.60;;;16.00;99.90;;;;;;5075417;28;20448;-87
2022/09/02 01:43:17;;;;;;;5.53;5.03;;;16.00;99.90;;;;;;5075675;28;20475;-87
2022/09/02 01:45:46;;;;;;;5.63;5.13;;;16.00;99.90;;;;;;5074997;28;20448;-87
2022/09/02 01:48:14;;;;;;;4.77;4.23;;;16.00;99.90;;;;;;5075083;28;20448;-87
2022/09/02 01:50:44;;;;;;;6.47;4.33;;;16.00;99.90;;;;;;5075756;28;20499;-87
2022/09/02 01:53:11;;;;;;;5.27;4.87;;;16.00;99.90;;;;;;5098174;28;20472;-88
2022/09/02 01:55:38;;;;;;;5.13;4.73;;;16.00;99.90;;;;;;5089507;28;20478;-88
2022/09/02 01:58:06;;;;;;;5.07;4.67;;;15.90;99.90;;;;;;5082120;28;20484;-87
2022/09/02 02:00:33;;;;;;;4.33;4.03;;;15.90;99.90;;;;;;5079624;28;20443;-86
2022/09/02 02:03:00;;;;;;;4.60;4.30;;;15.90;99.90;;;;;;5075941;28;20517;-87
2022/09/02 02:05:27;;;;;;;4.57;4.27;;;15.90;99.90;;;;;;5076134;28;20438;-86
2022/09/02 02:07:54;;;;;;;5.53;5.13;;;15.90;99.90;;;;;;5075483;28;20863;-87
2022/09/02 02:10:21;;;;;;;4.30;3.90;;;15.90;99.90;;;;;;5080323;28;20455;-87
2022/09/02 02:12:48;;;;;;;5.47;4.97;;;15.90;99.90;;;;;;5095753;28;20456;-87
2022/09/02 02:15:18;;;;;;;5.63;5.13;;;15.80;99.90;;;;;;5080442;28;20450;-86
2022/09/02 02:17:46;;;;;;;5.67;5.17;;;15.70;99.90;;;;;;5083363;28;20482;-86
2022/09/02 02:20:14;;;;;;;12.67;5.90;;;15.70;99.90;;;;;;5076409;28;20452;-86
2022/09/02 02:22:42;;;;;;;5.00;4.50;;;15.60;99.90;;;;;;5075403;28;20563;-87
2022/09/02 02:25:10;;;;;;;4.60;4.20;;;15.60;99.90;;;;;;5074832;28;20527;-87
2022/09/02 02:27:37;;;;;;;5.33;4.93;;;15.50;99.90;;;;;;5074569;28;20440;-86
2022/09/02 02:30:05;;;;;;;5.83;5.23;;;15.50;99.90;;;;;;5081204;28;20514;-87
2022/09/02 02:32:33;;;;;;;6.57;5.70;;;15.40;99.90;;;;;;5097600;28;20464;-87
2022/09/02 02:35:00;;;;;;;5.40;5.00;;;15.40;99.90;;;;;;5088635;28;20451;-87
2022/09/02 02:37:26;;;;;;;5.17;4.73;;;15.30;99.90;;;;;;5086323;28;20454;-87
2022/09/02 02:39:54;;;;;;;5.57;5.07;;;15.30;99.90;;;;;;5079891;28;20574;-86
2022/09/02 02:42:21;;;;;;;4.97;4.50;;;15.30;99.90;;;;;;5078514;28;20964;-87
2022/09/02 02:44:48;;;;;;;5.00;4.70;;;15.30;99.90;;;;;;5083937;28;20515;-87
2022/09/02 02:47:15;;;;;;;5.40;4.90;;;15.20;99.90;;;;;;5080161;28;20451;-86
2022/09/02 02:49:44;;;;;;;5.60;5.17;;;15.20;99.90;;;;;;5074917;28;20448;-86
2022/09/02 02:52:12;;;;;;;6.50;5.30;;;15.20;99.90;;;;;;5074627;28;20443;-86
2022/09/02 02:54:39;;;;;;;4.93;4.23;;;15.20;99.90;;;;;;5079340;28;20455;-86
2022/09/02 02:57:07;;;;;;;4.70;4.30;;;15.20;99.90;;;;;;5094794;28;20432;-86
2022/09/02 02:59:35;;;;;;;5.30;4.80;;;15.20;99.90;;;;;;5096554;28;20490;-87
2022/09/02 03:02:02;;;;;;;5.70;5.10;;;15.20;99.90;;;;;;5083952;28;20441;-87
2022/09/02 03:04:29;;;;;;;5.47;4.93;;;15.20;99.90;;;;;;5074007;28;20435;-88
2022/09/02 03:06:58;;;;;;;6.13;5.63;;;15.20;99.90;;;;;;5073602;28;20563;-87
2022/09/02 03:09:25;;;;;;;6.07;5.57;;;15.20;99.90;;;;;;5073640;28;20941;-88
2022/09/02 03:11:51;;;;;;;5.80;5.30;;;15.20;99.90;;;;;;5086032;28;20428;-87
2022/09/02 03:14:18;;;;;;;5.73;5.23;;;15.20;99.90;;;;;;5095618;28;20467;-88
2022/09/02 03:16:45;;;;;;;5.40;4.90;;;15.20;99.90;;;;;;5089118;28;20451;-87
2022/09/02 03:19:13;;;;;;;7.27;4.83;;;15.20;99.90;;;;;;5090358;28;20483;-88
2022/09/02 03:21:40;;;;;;;5.87;5.27;;;15.10;99.90;;;;;;5092762;28;20443;-87
2022/09/02 03:24:09;;;;;;;8.93;4.90;;;15.00;99.90;;;;;;5075947;28;20471;-88
2022/09/02 03:26:36;;;;;;;7.30;5.63;;;14.90;99.90;;;;;;5073610;28;20455;-88
2022/09/02 03:29:02;;;;;;;6.20;5.60;;;14.90;99.90;;;;;;5073609;28;20466;-88
2022/09/02 03:31:29;;;;;;;5.70;5.20;;;14.80;99.90;;;;;;5089986;28;20428;-88
2022/09/02 03:33:56;;;;;;;7.47;6.60;;;14.70;99.90;;;;;;5076442;28;20476;-87
2022/09/02 03:36:25;;;;;;;6.33;5.70;;;14.70;99.90;;;;;;5073174;28;20460;-87
2022/09/02 03:38:52;;;;;;;6.63;5.90;;;14.70;99.90;;;;;;5085817;28;20495;-87
2022/09/02 03:41:20;;;;;;;6.37;5.77;;;14.70;99.90;;;;;;5090961;28;20448;-87
2022/09/02 03:43:47;;;;;;;6.80;6.20;;;14.70;99.90;;;;;;5075080;28;20467;-86
2022/09/02 03:46:14;;;;;;;6.50;5.93;;;14.60;99.90;;;;;;5073683;28;20424;-87
2022/09/02 03:48:41;;;;;;;6.93;6.30;;;14.60;99.90;;;;;;5073457;28;20451;-86
2022/09/02 03:51:08;;;;;;;7.17;6.57;;;14.60;99.90;;;;;;5073684;28;20444;-86
2022/09/02 03:53:35;;;;;;;7.10;6.50;;;14.50;99.90;;;;;;5074628;28;20476;-87
2022/09/02 03:56:05;;;;;;;7.30;6.70;;;14.50;99.90;;;;;;5074503;28;20451;-87
2022/09/02 03:58:33;;;;;;;6.33;5.80;;;14.50;99.90;;;;;;5073493;28;20996;-87
2022/09/02 04:01:00;;;;;;;8.27;7.40;;;14.40;99.90;;;;;;5073739;28;20446;-87
2022/09/02 04:03:27;;;;;;;7.00;6.40;;;14.50;99.90;;;;;;5075582;28;20475;-87
2022/09/02 04:05:54;;;;;;;6.40;5.67;;;14.50;99.90;;;;;;5089285;28;20452;-87
2022/09/02 04:08:22;;;;;;;7.03;6.33;;;14.40;99.90;;;;;;5091568;28;20684;-86
2022/09/02 04:10:49;;;;;;;6.90;6.30;;;14.40;99.90;;;;;;5083669;28;20440;-87
2022/09/02 04:13:16;;;;;;;8.97;6.80;;;14.40;99.90;;;;;;5076849;28;20470;-87
2022/09/02 04:15:47;;;;;;;7.20;6.50;;;14.30;99.90;;;;;;5076266;28;20447;-86
2022/09/02 04:18:15;;;;;;;6.43;5.80;;;14.30;99.90;;;;;;5076361;28;20483;-87
2022/09/02 04:20:43;;;;;;;6.33;5.70;;;14.30;99.90;;;;;;5077149;28;20451;-86
2022/09/02 04:23:10;;;;;;;6.97;6.37;;;14.30;99.90;;;;;;5077377;28;20467;-86
2022/09/02 04:25:40;;;;;;;8.10;6.20;;;14.40;99.90;;;;;;5080801;28;20455;-86
2022/09/02 04:28:07;;;;;;;6.70;6.10;;;14.30;99.90;;;;;;5080766;28;20448;-87
2022/09/02 04:30:34;;;;;;;7.70;6.90;;;14.30;99.90;;;;;;5083840;28;20435;-87
2022/09/02 04:33:02;;;;;;;9.57;6.40;;;14.20;99.90;;;;;;5077988;28;20828;-87
2022/09/02 04:35:29;;;;;;;7.10;6.50;;;14.20;99.90;;;;;;5078427;28;20447;-87
2022/09/02 04:37:56;;;;;;;7.00;6.30;;;14.20;99.90;;;;;;5077753;28;20456;-88
2022/09/02 04:40:23;;;;;;;8.33;6.70;;;14.20;99.90;;;;;;5077379;28;20451;-87
2022/09/02 04:42:52;;;;;;;7.87;7.13;;;14.20;99.90;;;;;;5079605;28;20471;-87
2022/09/02 04:45:19;;;;;;;8.07;6.20;;;14.20;99.90;;;;;;5094834;28;20458;-87
2022/09/02 04:47:46;;;;;;;10.03;7.33;;;14.20;99.90;;;;;;5089147;28;20459;-87
2022/09/02 04:50:14;;;;;;;6.43;5.83;;;14.20;99.90;;;;;;5079298;28;20444;-86
2022/09/02 04:52:41;;;;;;;7.70;6.93;;;14.20;99.90;;;;;;5081227;28;20827;-87
2022/09/02 04:55:09;;;;;;;7.53;6.33;;;14.10;99.90;;;;;;5078321;28;20451;-87
2022/09/02 04:57:36;;;;;;;8.13;7.33;;;14.10;99.90;;;;;;5095651;28;20440;-87
2022/09/02 05:00:04;;;;;;;8.20;7.27;;;14.10;99.90;;;;;;5096952;28;20479;-87
2022/09/02 05:02:31;;;;;;;9.97;7.07;;;14.10;99.90;;;;;;5095873;28;20479;-87
2022/09/02 05:04:58;;;;;;;8.03;7.03;;;14.20;99.90;;;;;;5085978;28;20444;-87
2022/09/02 05:07:26;;;;;;;11.73;7.13;;;14.20;99.90;;;;;;5076667;28;20451;-86
2022/09/02 05:09:56;;;;;;;8.00;6.67;;;14.20;99.90;;;;;;5077413;28;20436;-87
2022/09/02 05:12:23;;;;;;;8.60;7.23;;;14.20;99.90;;;;;;5076224;28;20456;-85
2022/09/02 05:14:50;;;;;;;8.60;7.20;;;14.20;99.90;;;;;;5079974;28;20443;-85
2022/09/02 05:17:16;;;;;;;8.70;6.37;;;14.30;99.90;;;;;;5097960;28;20964;-85
2022/09/02 05:19:43;;;;;;;7.33;6.63;;;14.40;99.90;;;;;;5082009;28;20987;-80
2022/09/02 05:22:10;;;;;;;8.00;6.97;;;14.30;99.90;;;;;;5082001;28;20472;-81
2022/09/02 05:24:38;;;;;;;10.30;7.67;;;14.30;99.90;;;;;;5086707;28;20444;-81
2022/09/02 05:27:05;;;;;;;8.33;6.47;;;14.30;99.90;;;;;;5083500;28;20474;-81
2022/09/02 05:29:32;;;;;;;9.60;6.97;;;14.30;99.90;;;;;;5077745;28;20428;-81
2022/09/02 05:31:59;;;;;;;11.23;6.87;;;14.40;99.90;;;;;;5087035;28;20444;-80
2022/09/02 05:34:26;;;;;;;9.27;6.97;;;14.40;99.90;;;;;;5089175;28;20824;-80
2022/09/02 05:36:53;;;;;;;8.07;6.80;;;14.40;99.90;;;;;;5078623;28;20501;-80
2022/09/02 05:39:20;;;;;;;10.10;6.77;;;14.50;99.90;;;;;;5078858;28;20481;-80
2022/09/02 05:41:48;;;;;;;16.00;8.57;;;14.50;99.90;;;;;;5077344;28;20467;-80
2022/09/02 05:44:22;;;;;;;13.70;6.40;;;14.50;99.90;;;;;;5076463;28;20471;-80
2022/09/02 05:46:49;;;;;;;9.63;7.17;;;14.50;99.90;;;;;;5076746;28;20456;-81
2022/09/02 05:49:17;;;;;;;10.07;6.80;;;14.60;99.90;;;;;;5076407;28;20983;-80
2022/09/02 05:51:45;;;;;;;12.10;7.60;;;14.60;99.90;;;;;;5075769;28;20440;-80
2022/09/02 05:54:15;;;;;;;11.57;7.57;;;14.60;99.90;;;;;;5073925;28;20463;-80
2022/09/02 05:57:03;;;;;;;8.03;7.20;;;14.70;99.90;;;;;;5073755;28;20940;-80
2022/09/02 05:59:41;;;;;;;7.87;7.07;;;14.80;99.90;;;;;;5074201;28;20482;-80
2022/09/02 06:05:10;;;;;;;7.03;6.40;;;14.90;99.90;;;;;;5080309;28;20432;-80
2022/09/02 06:07:43;;;;;;;6.90;6.20;;;15.00;99.90;;;;;;5079985;28;20432;-81
2022/09/02 06:10:10;;;;;;;13.33;6.20;;;15.20;99.90;;;;;;5079683;28;20436;-80
2022/09/02 06:12:38;;;;;;;6.87;4.90;;;15.30;99.90;;;;;;5087689;28;20460;-80
2022/09/02 06:15:09;;;;;;;5.37;4.80;;;15.40;99.90;;;;;;5082906;28;20546;-81
2022/09/02 06:17:36;;;;;;;4.67;4.17;;;15.50;99.90;;;;;;5079935;28;21107;-81
2022/09/02 06:20:04;;;;;;;4.90;4.17;;;15.60;99.90;;;;;;5085274;28;20476;-81
2022/09/02 06:22:31;;;;;;;7.83;4.33;;;15.80;99.90;;;;;;5080451;28;20972;-81
2022/09/02 06:24:58;;;;;;;6.00;4.70;;;16.00;99.90;;;;;;5076714;28;20448;-81
2022/09/02 06:27:25;;;;;;;6.33;4.10;;;16.30;99.90;;;;;;5079205;28;20439;-81
2022/09/02 06:29:53;;;;;;;3.27;2.97;;;16.70;99.90;;;;;;5080303;28;20439;-81
2022/09/02 06:32:20;;;;;;;4.53;4.13;;;16.90;99.90;;;;;;5078821;28;20519;-81
2022/09/02 06:34:47;;;;;;;4.80;4.00;;;17.30;99.90;;;;;;5079185;28;20441;-81
2022/09/02 06:37:14;;;;;;;4.60;3.63;;;17.70;99.90;;;;;;5078971;28;20466;-81
2022/09/02 06:39:43;;;;;;;4.77;3.90;;;18.00;99.90;;;;;;5078231;28;20559;-81
2022/09/02 06:42:10;;;;;;;4.20;3.80;;;18.20;99.90;;;;;;5077840;28;20439;-81
2022/09/02 06:44:37;;;;;;;5.33;3.83;;;18.50;99.90;;;;;;5080516;28;20452;-81
2022/09/02 06:47:05;;;;;;;4.30;3.23;;;18.70;99.00;;;;;;5082896;28;20572;-81
2022/09/02 06:49:35;;;;;;;4.20;3.20;;;19.00;98.30;;;;;;5082328;28;20818;-81
2022/09/02 06:52:04;;;;;;;7.70;3.50;;;19.30;97.60;;;;;;5079779;28;20436;-81
2022/09/02 06:54:31;;;;;;;3.40;3.10;;;19.50;96.60;;;;;;5078524;28;20432;-81
2022/09/02 06:56:58;;;;;;;3.23;2.93;;;20.10;96.00;;;;;;5077128;28;20622;-81
2022/09/02 06:59:25;;;;;;;4.50;2.67;;;20.60;94.50;;;;;;5082595;28;20467;-81
2022/09/02 07:01:53;;;;;;;3.63;3.17;;;21.40;92.70;;;;;;5085204;28;20456;-84
2022/09/02 07:07:08;;;;;;;4.60;2.67;;;23.00;88.10;;;;;;5083233;28;20437;-89
2022/09/02 07:09:34;;;;;;;6.57;3.00;;;24.50;82.80;;;;;;5080273;28;20458;-87
2022/09/02 07:12:03;;;;;;;3.50;3.00;;;25.20;76.40;;;;;;5079517;28;20453;-86
2022/09/02 07:14:29;;;;;;;4.63;3.10;;;24.20;75.20;;;;;;5074617;28;20445;-89
2022/09/02 07:16:58;;;;;;;3.13;2.83;;;24.60;76.00;;;;;;5077401;28;20497;-89
2022/09/02 07:19:30;;;;;;;4.23;2.97;;;25.50;73.10;;;;;;5076520;28;20555;-88
2022/09/02 07:21:57;;;;;;;3.07;2.60;;;26.30;70.30;;;;;;5077483;28;20826;-87
2022/09/02 07:24:24;;;;;;;3.13;2.83;;;27.50;66.00;;;;;;5093364;28;20479;-88
2022/09/02 07:26:51;;;;;;;3.00;2.57;;;27.70;62.70;;;;;;5085601;28;20443;-87
2022/09/02 07:29:18;;;;;;;3.80;2.87;;;27.30;62.10;;;;;;5076087;28;20442;-87
2022/09/02 07:31:46;;;;;;;3.93;2.70;;;26.40;63.50;;;;;;5078235;28;20836;-87
2022/09/02 07:34:13;;;;;;;4.37;3.00;;;26.60;64.60;;;;;;5080855;28;20461;-86
2022/09/02 07:36:44;;;;;;;3.47;2.87;;;26.50;63.70;;;;;;5082541;28;20436;-86
2022/09/02 07:39:13;;;;;;;4.33;2.73;;;27.30;63.00;;;;;;5085956;28;20570;-87
2022/09/02 07:41:42;;;;;;;3.70;3.20;;;27.10;61.30;;;;;;5087243;28;20837;-87
2022/09/02 07:44:09;;;;;;;2.90;2.60;;;26.50;62.20;;;;;;5084273;28;20471;-86
2022/09/02 07:46:36;;;;;;;4.97;3.50;;;25.90;63.60;;;;;;5082739;28;20439;-87
2022/09/02 07:49:06;;;;;;;7.23;3.00;;;25.30;65.20;;;;;;5097738;28;20437;-89
2022/09/02 07:51:34;;;;;;;2.97;2.57;;;25.70;64.90;;;;;;5099361;28;20450;-87
2022/09/02 07:54:04;;;;;;;3.30;2.83;;;27.00;64.10;;;;;;5082042;28;20464;-89
2022/09/02 07:56:31;;;;;;;2.70;2.50;;;27.80;59.40;;;;;;5079460;28;20437;-88
2022/09/02 07:58:58;;;;;;;5.20;3.00;;;27.90;59.10;;;;;;5078447;28;20802;-88
2022/09/02 08:01:25;;;;;;;2.80;2.57;;;26.90;60.20;;;;;;5078714;28;20447;-87
2022/09/02 08:03:52;;;;;;;6.43;2.80;;;26.10;61.90;;;;;;5084492;28;20466;-88
2022/09/02 08:06:19;;;;;;;3.60;2.70;;;26.10;62.60;;;;;;5090953;28;20827;-87
2022/09/02 08:08:46;;;;;;;2.73;2.47;;;25.70;63.00;;;;;;5091216;28;20432;-88
2022/09/02 08:11:15;;;;;;;3.20;2.67;;;25.60;63.30;;;;;;5094335;28;20452;-88
2022/09/02 08:13:42;;;;;;;2.90;2.47;;;25.20;63.90;;;;;;5085752;28;20452;-88
2022/09/02 08:16:09;;;;;;;5.00;3.10;;;25.60;64.60;;;;;;5079971;28;20464;-88
2022/09/02 08:18:35;;;;;;;3.40;2.67;;;26.00;63.50;;;;;;5078136;28;20431;-88
2022/09/02 08:21:02;;;;;;;4.40;2.90;;;26.00;63.00;;;;;;5082279;28;20478;-88
2022/09/02 08:23:29;;;;;;;3.20;2.63;;;26.00;61.80;;;;;;5083296;28;20472;-88
2022/09/02 08:25:58;;;;;;;4.17;2.60;;;25.70;62.50;;;;;;5082125;28;20772;-87
2022/09/02 08:28:27;;;;;;;2.50;2.30;;;25.10;64.20;;;;;;5097621;28;20427;-88
2022/09/02 08:30:57;;;;;;;4.67;2.60;;;24.30;65.60;;;;;;5083291;28;20505;-87
2022/09/02 08:33:32;;;;;;;3.37;2.83;;;24.00;67.50;;;;;;5087641;28;20543;-88
2022/09/02 08:36:03;;;;;;;3.60;2.60;;;24.20;66.60;;;;;;5105913;28;20429;-88
2022/09/02 08:38:30;;;;;;;5.07;2.40;;;24.80;66.70;;;;;;5086717;28;21124;-88
2022/09/02 08:40:57;;;;;;;5.30;2.27;;;25.30;64.40;;;;;;5077326;28;20483;-88
2022/09/02 08:43:36;;;;;;;6.20;2.37;;;26.30;63.40;;;;;;5085897;28;20451;-89
2022/09/02 08:46:05;;;;;;;3.87;2.20;;;28.50;58.40;;;;;;5077871;28;20448;-89
2022/09/02 08:48:37;;;;;;;3.73;2.03;;;29.40;55.70;;;;;;5086450;28;20442;-86
2022/09/02 08:51:07;;;;;;;3.10;2.13;;;30.00;53.50;;;;;;5080648;28;20442;-87
2022/09/02 08:53:40;;;;;;;2.30;2.10;;;31.20;51.60;;;;;;5091171;28;20462;-87
2022/09/02 08:56:10;;;;;;;4.70;1.70;;;31.90;49.90;;;;;;5080076;28;20452;-87
2022/09/02 08:58:42;;;;;;;4.00;1.67;;;31.60;48.80;;;;;;5079861;28;20452;-89
2022/09/02 09:01:18;;;;;;;4.23;2.07;;;32.60;48.50;;;;;;5080633;28;20472;-89
2022/09/02 09:04:04;;;;;;;1.63;1.50;;;33.50;44.70;;;;;;5081030;28;20461;-89
2022/09/02 09:06:38;;;;;;;2.23;1.53;;;32.60;45.40;;;;;;5077775;28;20439;-90
2022/09/02 09:09:13;;;;;;;1.70;1.57;;;32.60;44.00;;;;;;5079225;28;20449;-87
2022/09/02 09:11:47;;;;;;;2.10;1.90;;;31.80;44.30;;;;;;5077817;28;20438;-88
2022/09/02 09:14:24;;;;;;;2.00;1.63;;;31.60;44.00;;;;;;5077327;28;20481;-87
2022/09/02 09:16:57;;;;;;;3.10;2.20;;;32.10;44.20;;;;;;5085151;28;20441;-88
2022/09/02 09:19:37;;;;;;;1.93;1.60;;;31.90;43.00;;;;;;5082333;28;20447;-89
2022/09/02 09:22:04;;;;;;;2.10;1.43;;;31.30;43.50;;;;;;5075965;28;20467;-88
2022/09/02 09:24:36;;;;;;;2.97;1.80;;;30.60;45.00;;;;;;5077830;28;20985;-87
2022/09/02 09:27:05;;;;;;;2.10;1.90;;;31.50;44.40;;;;;;5079883;28;20443;-88
2022/09/02 09:29:35;;;;;;;3.03;1.97;;;31.90;43.10;;;;;;5093614;28;20430;-88
2022/09/02 09:32:12;;;;;;;1.70;1.50;;;32.30;41.50;;;;;;5101086;28;20434;-89
2022/09/02 09:35:01;;;;;;;2.00;1.57;;;31.70;40.80;;;;;;5081775;28;20451;-87
2022/09/02 09:37:32;;;;;;;1.77;1.53;;;31.10;43.10;;;;;;5077092;28;20439;-90
2022/09/02 09:39:59;;;;;;;3.40;1.50;;;31.40;41.80;;;;;;5082686;28;21043;-89
2022/09/02 09:42:35;;;;;;;3.40;2.10;;;31.80;41.10;;;;;;5083712;28;20452;-88
2022/09/02 09:45:20;;;;;;;5.53;1.90;;;30.90;41.50;;;;;;5077448;28;20475;-88
2022/09/02 09:48:22;;;;;;;2.57;1.30;;;31.40;42.10;;;;;;5078173;28;20433;-89
2022/09/02 09:51:13;;;;;;;1.77;1.43;;;33.10;40.30;;;;;;5080187;28;20436;-90
2022/09/02 09:53:44;;;;;;;1.70;1.43;;;34.00;38.50;;;;;;5087317;28;20471;-88
2022/09/02 09:56:31;;;;;;;3.67;1.63;;;34.80;36.90;;;;;;5087224;28;20959;-89
2022/09/02 09:58:58;;;;;;;2.63;1.60;;;33.40;36.80;;;;;;5085768;28;20473;-89
2022/09/02 10:01:29;;;;;;;2.17;1.80;;;32.50;38.10;;;;;;5081977;28;20529;-88
2022/09/02 10:03:59;;;;;;;1.80;1.57;;;31.60;37.60;;;;;;5079673;28;20538;-88
2022/09/02 10:06:37;;;;;;;2.13;1.60;;;31.00;38.90;;;;;;5084288;28;20536;-88
2022/09/02 10:09:06;;;;;;;3.60;1.20;;;30.30;39.80;;;;;;5084099;28;20499;-89
2022/09/02 10:11:35;;;;;;;1.70;1.30;;;30.80;39.20;;;;;;5083223;28;20447;-89
2022/09/02 10:14:05;;;;;;;1.80;1.47;;;31.30;38.10;;;;;;5092094;28;20458;-88
2022/09/02 10:16:47;;;;;;;3.80;1.50;;;31.60;38.40;;;;;;5088539;28;20449;-89
2022/09/02 10:19:26;;;;;;;2.70;1.57;;;31.30;38.50;;;;;;5080239;28;20443;-92
2022/09/02 10:22:24;;;;;;;2.77;1.93;;;30.90;39.80;;;;;;5090631;28;20472;-90
2022/09/02 10:25:08;;;;;;;2.50;1.50;;;31.50;38.70;;;;;;5069234;28;20433;-89
2022/09/02 10:27:52;;;;;;;2.60;1.97;;;32.20;37.20;;;;;;5083528;28;20442;-88
2022/09/02 10:30:21;;;;;;;5.20;2.00;;;31.10;37.20;;;;;;5079547;28;20443;-87
2022/09/02 10:33:23;;;;;;;2.80;1.63;;;31.10;38.40;;;;;;5086267;28;20533;-88
2022/09/02 10:35:59;;;;;;;2.30;1.40;;;31.10;37.90;;;;;;5091867;28;20441;-88
2022/09/02 10:38:46;;;;;;;2.10;1.50;;;31.60;37.90;;;;;;5090393;28;20428;-89
2022/09/02 10:41:26;;;;;;;1.60;1.30;;;32.30;36.60;;;;;;5112516;28;20481;-86
2022/09/02 10:44:08;;;;;;;5.03;1.40;;;32.40;35.40;;;;;;5099570;28;20518;-87
2022/09/02 10:46:48;;;;;;;2.93;1.73;;;34.00;34.50;;;;;;5098859;28;20447;-89
2022/09/02 10:49:25;;;;;;;2.70;2.10;;;33.50;33.60;;;;;;5089361;28;20448;-87
2022/09/02 10:52:00;;;;;;;2.00;1.30;;;33.30;34.40;;;;;;5082453;28;20441;-87
2022/09/02 10:54:39;;;;;;;4.90;1.53;;;33.10;34.90;;;;;;5082751;28;20519;-91
2022/09/02 10:57:12;;;;;;;3.23;1.30;;;33.10;35.00;;;;;;5092919;28;20463;-91
2022/09/02 10:59:50;;;;;;;1.93;1.47;;;33.80;34.10;;;;;;5086904;28;20452;-90
2022/09/02 11:02:21;;;;;;;1.93;1.33;;;33.70;33.40;;;;;;5082118;28;20431;-89
2022/09/02 11:04:55;;;;;;;1.87;1.33;;;33.30;33.50;;;;;;5087197;28;20438;-90
2022/09/02 11:07:26;;;;;;;4.40;1.80;;;33.40;33.90;;;;;;5086405;28;20454;-90
2022/09/02 11:09:57;;;;;;;2.10;1.37;;;34.40;33.20;;;;;;5099668;28;20445;-90
2022/09/02 11:12:30;;;;;;;1.80;1.33;;;35.90;31.80;;;;;;5076756;28;20439;-90
2022/09/02 11:15:06;;;;;;;1.70;1.40;;;35.40;30.80;;;;;;5076007;28;20451;-90
2022/09/02 11:17:39;;;;;;;2.20;1.20;;;35.50;31.20;;;;;;5086142;28;20420;-89
2022/09/02 11:20:13;;;;;;;3.40;2.27;;;34.80;31.50;;;;;;5080254;28;20438;-90
2022/09/02 11:22:49;;;;;;;2.27;1.30;;;35.60;30.80;;;;;;5087263;28;20457;-90
2022/09/02 11:25:24;;;;;;;5.47;1.50;;;35.20;30.00;;;;;;5081157;28;20497;-90
2022/09/02 11:27:59;;;;;;;2.30;1.67;;;35.40;30.00;;;;;;5091618;28;20963;-90
2022/09/02 11:30:36;;;;;;;2.77;1.30;;;35.40;30.40;;;;;;5094244;28;20501;-89
2022/09/02 11:33:16;;;;;;;1.37;1.10;;;34.50;31.00;;;;;;5087736;28;20465;-89
2022/09/02 11:35:44;;;;;;;1.60;1.23;;;34.60;31.60;;;;;;5085727;28;20436;-89
2022/09/02 11:38:30;;;;;;;2.13;1.63;;;35.20;30.90;;;;;;5084676;28;20443;-91
2022/09/02 11:41:23;;;;;;;2.40;2.00;;;35.10;30.70;;;;;;5080001;28;20789;-90
2022/09/02 11:43:54;;;;;;;2.13;1.43;;;35.90;30.80;;;;;;5071431;28;20868;-90
2022/09/02 11:46:45;;;;;;;2.00;1.60;;;35.40;30.40;;;;;;5083567;28;20448;-89
2022/09/02 11:49:41;;;;;;;3.33;1.50;;;34.70;31.80;;;;;;5088869;28;20557;-89
2022/09/02 11:52:28;;;;;;;4.37;1.53;;;35.50;31.20;;;;;;5088229;28;20449;-90
2022/09/02 11:55:37;;;;;;;1.40;1.00;;;36.60;29.30;;;;;;5083419;28;20440;-90
2022/09/02 12:04:29;;;;;;;2.60;1.87;;;36.70;28.90;;;;;;5011530;28;20498;-89
2022/09/02 12:07:42;;;;;;;2.57;2.00;;;35.60;30.60;;;;;;5029918;28;20496;-90
2022/09/02 12:10:50;;;;;;;3.30;1.47;;;36.00;29.80;;;;;;5021681;28;20460;-89
2022/09/02 12:29:32;;;;;;;3.07;1.50;;;35.90;29.50;;;;;;6048317;22;4179176;-89
2022/09/02 12:31:59;;;;;;;2.23;1.80;;;37.30;29.00;;;;;;6202323;23;20651;-90
2022/09/02 12:35:08;;;;;;;2.17;1.40;;;35.90;29.60;;;;;;6205583;23;20538;-90
2022/09/02 12:37:53;;;;;;;2.50;1.60;;;36.00;29.80;;;;;;6202100;23;20405;-88
2022/09/02 12:40:33;;;;;;;3.60;1.50;;;36.30;29.20;;;;;;6209200;23;20678;-88
2022/09/02 12:43:05;;;;;;;2.03;1.47;;;37.10;28.60;;;;;;6216807;23;20416;-86
2022/09/02 12:45:41;;;;;;;1.83;1.67;;;37.50;28.40;;;;;;6220572;23;20365;-86
2022/09/02 12:48:12;;;;;;;4.30;1.40;;;36.90;28.10;;;;;;6220841;23;20432;-85
2022/09/02 12:50:54;;;;;;;1.60;1.20;;;35.40;28.80;;;;;;6220327;23;20435;-86
2022/09/02 12:53:30;;;;;;;3.50;1.43;;;35.00;29.90;;;;;;6219973;23;20415;-87
2022/09/02 12:56:00;;;;;;;2.37;1.37;;;35.30;29.80;;;;;;6216906;23;20505;-86
2022/09/02 12:58:32;;;;;;;3.10;1.50;;;35.80;29.40;;;;;;6202465;23;20404;-89
2022/09/02 13:01:10;;;;;;;1.80;1.47;;;36.50;29.00;;;;;;6201543;23;20394;-90
2022/09/02 13:04:12;;;;;;;3.43;1.60;;;36.70;29.10;;;;;;6204689;23;20499;-89
2022/09/02 13:07:20;;;;;;;2.00;1.53;;;36.80;28.70;;;;;;6148951;23;20435;-86
2022/09/02 13:10:23;;;;;;;2.37;1.40;;;35.60;29.50;;;;;;6173863;23;20427;-87
2022/09/02 13:13:25;;;;;;;2.60;1.50;;;34.80;30.20;;;;;;6209458;23;20424;-86
2022/09/02 13:16:10;;;;;;;1.60;1.50;;;34.60;30.50;;;;;;6156148;23;20453;-88
2022/09/02 13:19:19;;;;;;;3.00;1.27;;;35.20;30.30;;;;;;6199440;23;20390;-88
2022/09/02 13:22:44;;;;;;;2.30;1.70;;;35.00;29.70;;;;;;6116697;23;20482;-89
2022/09/02 13:25:43;;;;;;;2.07;1.60;;;34.70;30.30;;;;;;6199302;23;20383;-89
2022/09/02 13:28:59;;;;;;;2.47;1.70;;;34.70;30.30;;;;;;6207059;23;20420;-86
2022/09/02 13:31:28;;;;;;;2.23;1.57;;;34.90;30.40;;;;;;6225139;23;20425;-88
2022/09/02 13:34:05;;;;;;;1.77;1.67;;;34.30;31.10;;;;;;6224363;23;20432;-88
2022/09/02 13:36:36;;;;;;;2.80;1.80;;;35.00;31.00;;;;;;6222844;23;20427;-87
2022/09/02 13:39:16;;;;;;;3.87;1.90;;;36.30;29.90;;;;;;6226288;23;20404;-86